»·PEaware :: N13W KLAS-KTOA

N13W :: KLAS-KTOA

FLIGHT INFORMATION

Flight Status: Arrived
Operator: Privately registered:
United States
More flights under this callsign
Pilot: Will N. (25416)
Aircraft: SOCATA TBM-900
(TBM9)
More flights by this aircraft type
Origin: KLAS McCarran Intl
United States
Destination: KTOA Zamperini
United States
More flights between these airports :: More routes between these airports
Route: +LAS V538 GFS V210 HEC + DAWNA KAYOH7
File this flight plan on PilotEdge
Remarks: RMK / SIMBRIEF
Altitude:
(Current/Filed)
24,000ft
Speed:
(Current/Filed)
300kts
Departed: 21-Nov-19 07:31 PM
Arrived: 21-Nov-19 08:30 PM
Distance/Time
Traveled:
208nm/0:59
Distance/Time
To Go:
Arrived

Flight Plot

Page will automatically refresh every two minutes.


Map Options




Map Legend


Flown Route
Filed Route
Departure Airport
Arrival Airport
Navaid (VOR, NDB)
Fix

Horizontal Profiles

Position Reports

Time Latitude Longitude Heading Altitude Ground
Speed
21-Nov-19 19:06 36.081234 -115.170517 187 2169ft 0kts
21-Nov-19 19:07 36.081234 -115.170517 187 2169ft 0kts
21-Nov-19 19:08 36.081234 -115.170517 187 2169ft 0kts
21-Nov-19 19:09 36.081234 -115.170517 187 2169ft 0kts
21-Nov-19 19:10 36.081234 -115.170517 187 2169ft 0kts
21-Nov-19 19:11 36.097370 -115.161919 187 2104ft 0kts
21-Nov-19 19:12 36.097370 -115.161919 187 2104ft 0kts
21-Nov-19 19:13 36.097370 -115.161919 187 2104ft 0kts
21-Nov-19 19:14 36.097370 -115.161919 187 2104ft 0kts
21-Nov-19 19:15 36.097370 -115.161919 187 2104ft 0kts
21-Nov-19 19:16 36.097370 -115.161919 187 2104ft 0kts
21-Nov-19 19:17 36.097370 -115.161919 187 2104ft 0kts
21-Nov-19 19:18 36.097370 -115.161919 187 2104ft 0kts
21-Nov-19 19:19 36.097370 -115.161919 187 2104ft 0kts
21-Nov-19 19:20 36.097370 -115.161919 187 2104ft 0kts
21-Nov-19 19:20 36.097369 -115.161919 187 2104ft 0kts
21-Nov-19 19:22 36.097369 -115.161919 187 2104ft 0kts
21-Nov-19 19:23 36.097343 -115.161597 35 2102ft 9kts
21-Nov-19 19:23 36.098158 -115.160423 165 2096ft 0kts
21-Nov-19 19:24 36.098004 -115.160362 159 2096ft 5kts
21-Nov-19 19:26 36.099826 -115.157734 78 2086ft 0kts
21-Nov-19 19:26 36.099826 -115.157734 78 2086ft 0kts
21-Nov-19 19:27 36.099826 -115.157734 78 2086ft 0kts
21-Nov-19 19:29 36.099850 -115.157384 93 2085ft 7kts
21-Nov-19 19:29 36.099112 -115.156744 205 2084ft 0kts
21-Nov-19 19:30 36.072235 -115.167196 184 3226ft 145kts
21-Nov-19 19:31 36.027492 -115.173075 186 5009ft 189kts
21-Nov-19 19:32 35.967558 -115.182891 186 6205ft 202kts
21-Nov-19 19:33 35.914070 -115.191717 186 8409ft 198kts
21-Nov-19 19:34 35.858480 -115.200389 186 10355ft 206kts
21-Nov-19 19:35 35.800461 -115.204897 178 12220ft 213kts
21-Nov-19 19:36 35.739456 -115.202450 178 14061ft 224kts
21-Nov-19 19:37 35.675894 -115.199724 178 15779ft 233kts
21-Nov-19 19:38 35.610058 -115.196889 179 17286ft 242kts
21-Nov-19 19:39 35.541724 -115.193954 179 18664ft 251kts
21-Nov-19 19:40 35.470954 -115.190915 180 20332ft 258kts
21-Nov-19 19:41 35.427097 -115.241313 251 21871ft 237kts
21-Nov-19 19:42 35.390022 -115.318921 245 22071ft 288kts
21-Nov-19 19:43 35.346019 -115.405173 244 22059ft 305kts
21-Nov-19 19:44 35.300524 -115.494036 244 22056ft 308kts
21-Nov-19 19:45 35.254873 -115.582994 244 22055ft 308kts
21-Nov-19 19:46 35.209220 -115.671735 243 22058ft 308kts
21-Nov-19 19:47 35.163148 -115.761050 243 22050ft 309kts
21-Nov-19 19:48 35.117346 -115.849629 243 22037ft 309kts
21-Nov-19 19:49 35.071130 -115.938774 243 22022ft 309kts
21-Nov-19 19:50 35.025116 -116.027278 244 22026ft 309kts
21-Nov-19 19:51 34.979313 -116.115173 244 22041ft 303kts
21-Nov-19 19:52 34.934669 -116.200674 244 22051ft 295kts
21-Nov-19 19:53 34.890981 -116.284132 244 22039ft 286kts
21-Nov-19 19:54 34.848600 -116.364870 244 22022ft 279kts
21-Nov-19 19:55 34.806722 -116.444493 244 22012ft 277kts
21-Nov-19 19:56 34.773958 -116.527234 252 22012ft 271kts
21-Nov-19 19:57 34.743704 -116.611435 252 22011ft 271kts
21-Nov-19 19:58 34.713465 -116.695372 252 22020ft 271kts
21-Nov-19 19:59 34.682868 -116.780068 252 22019ft 272kts
21-Nov-19 20:00 34.652993 -116.862503 252 22013ft 258kts
21-Nov-19 20:01 34.600248 -116.919932 211 22020ft 281kts
21-Nov-19 20:02 34.528015 -116.957625 211 20084ft 282kts
21-Nov-19 20:03 34.458739 -116.998180 212 17563ft 272kts
21-Nov-19 20:04 34.392275 -117.037922 210 15326ft 263kts
21-Nov-19 20:05 34.327708 -117.079920 210 13125ft 262kts
21-Nov-19 20:06 34.255889 -117.099147 189 11978ft 262kts
21-Nov-19 20:07 34.193948 -117.147265 215 10849ft 269kts
21-Nov-19 20:08 34.132169 -117.199792 215 9350ft 271kts
21-Nov-19 20:09 34.070614 -117.252014 216 7983ft 264kts
21-Nov-19 20:10 34.014337 -117.299687 216 7977ft 238kts
21-Nov-19 20:11 33.960430 -117.345275 215 7983ft 235kts
21-Nov-19 20:12 33.906178 -117.391081 215 7980ft 241kts
21-Nov-19 20:13 33.850502 -117.438002 215 7971ft 246kts
21-Nov-19 20:14 33.794171 -117.485397 215 7962ft 247kts
21-Nov-19 20:15 33.780125 -117.561623 271 7948ft 245kts
21-Nov-19 20:16 33.778202 -117.643882 262 7846ft 248kts
21-Nov-19 20:17 33.766757 -117.727743 260 6345ft 251kts
21-Nov-19 20:18 33.755553 -117.807859 260 4833ft 238kts
21-Nov-19 20:19 33.744616 -117.885497 260 3584ft 228kts
21-Nov-19 20:20 33.734123 -117.959735 260 2575ft 224kts
21-Nov-19 20:21 33.723809 -118.032384 260 1983ft 210kts
21-Nov-19 20:22 33.714408 -118.098331 260 1982ft 189kts
21-Nov-19 20:23 33.705468 -118.160807 260 1988ft 189kts
21-Nov-19 20:24 33.719454 -118.212314 308 1983ft 155kts
21-Nov-19 20:25 33.745855 -118.251991 308 1983ft 150kts
21-Nov-19 20:26 33.770773 -118.289495 308 1166ft 131kts
21-Nov-19 20:27 33.789152 -118.317281 308 679ft 88kts
21-Nov-19 20:28 33.803558 -118.338894 306 94ft 61kts
21-Nov-19 20:29 33.805978 -118.344170 289 91ft 4kts
21-Nov-19 20:30 33.805146 -118.345270 135 96ft 10kts
21-Nov-19 20:31 33.802811 -118.343570 127 109ft 7kts
21-Nov-19 20:32 33.802716 -118.343406 124 108ft 0kts

Navigation Log

Ident Type
Flight plan parsing failed, navigation log unavailable